createdAt,value
2018-11-22T00:00:54.556Z,96059.89
2018-11-22T00:04:03.594Z,96058.78
2018-11-22T00:06:53.620Z,96059.05
2018-11-22T00:09:42.827Z,96055.56
2018-11-22T00:12:34.088Z,96057.66
2018-11-22T00:15:24.312Z,96060.14
2018-11-22T00:18:14.282Z,96061.03
2018-11-22T00:21:03.435Z,96061.53
2018-11-22T00:23:52.605Z,96063.61
2018-11-22T00:26:41.717Z,96068.52
2018-11-22T00:29:31.220Z,96063.62
2018-11-22T00:32:20.458Z,96068.23
2018-11-22T00:35:11.380Z,96079.66
2018-11-22T00:38:00.576Z,96074.59
2018-11-22T00:40:49.666Z,96079.56
2018-11-22T00:43:39.806Z,96075.78
2018-11-22T00:46:29.882Z,96080.75
2018-11-22T00:54:39.723Z,96079.72
2018-11-22T00:57:29.161Z,96082.76
2018-11-22T01:00:29.322Z,96082.14
2018-11-22T01:03:18.710Z,96087.45
2018-11-22T01:06:00.744Z,96092.03
2018-11-22T01:08:50.172Z,96081.95
2018-11-22T01:11:32.372Z,96085.66
2018-11-22T01:14:21.804Z,96087.14
2018-11-22T01:17:04.151Z,96075.13
2018-11-22T01:19:53.230Z,96091.56
2018-11-22T01:22:35.331Z,96083.50
2018-11-22T01:25:24.784Z,96091.45
2018-11-22T01:28:11.629Z,96093.19
2018-11-22T01:31:00.727Z,96101.69
2018-11-22T01:33:42.647Z,96095.09
2018-11-22T01:36:31.711Z,96092.11
2018-11-22T01:39:13.670Z,96076.69
2018-11-22T01:42:02.799Z,96098.60
2018-11-22T01:44:45.135Z,96096.73
2018-11-22T01:47:34.181Z,96098.13
2018-11-22T01:50:23.236Z,96101.44
2018-11-22T01:53:05.615Z,96100.09
2018-11-22T01:55:54.801Z,96091.77
2018-11-22T01:58:43.915Z,96096.62
2018-11-22T02:01:33.126Z,96087.78
2018-11-22T02:04:22.223Z,96090.03
2018-11-22T02:07:11.519Z,96090.87
2018-11-22T02:10:09.244Z,96088.16
2018-11-22T02:12:58.431Z,96089.71
2018-11-22T02:15:47.433Z,96088.66
2018-11-22T02:18:30.023Z,96072.77
2018-11-22T02:21:19.119Z,96095.38
2018-11-22T02:24:08.299Z,96099.05
2018-11-22T02:26:57.457Z,96102.66
2018-11-22T02:29:46.551Z,96085.78
2018-11-22T02:32:35.690Z,96083.55
2018-11-22T02:35:25.220Z,96094.52
2018-11-22T02:38:14.426Z,96103.53
2018-11-22T02:41:03.595Z,96110.73
2018-11-22T02:43:52.706Z,96102.47
2018-11-22T02:46:42.039Z,96085.31
2018-11-22T02:49:31.547Z,96106.20
2018-11-22T02:52:23.485Z,96094.66
2018-11-22T02:55:13.469Z,96096.91
2018-11-22T02:57:55.498Z,96099.05
2018-11-22T03:03:33.727Z,96097.70
2018-11-22T03:06:22.776Z,96093.48
2018-11-22T03:09:07.748Z,96102.97
2018-11-22T03:11:56.808Z,96102.81
2018-11-22T03:14:39.318Z,96104.05
2018-11-22T03:17:28.396Z,96103.04
2018-11-22T03:20:11.655Z,96097.58
2018-11-22T03:23:00.742Z,96107.52
2018-11-22T03:25:42.866Z,96093.45
2018-11-22T03:28:31.957Z,96087.86
2018-11-22T03:31:13.775Z,96099.95
2018-11-22T03:34:02.804Z,96098.05
2018-11-22T03:36:45.178Z,96092.91
2018-11-22T03:39:34.240Z,96097.96
2018-11-22T03:42:16.685Z,96097.84
2018-11-22T03:45:06.299Z,96104.45
2018-11-22T03:47:48.581Z,96112.28
2018-11-22T03:50:37.749Z,96116.48
2018-11-22T03:53:19.466Z,96117.13
2018-11-22T03:56:08.954Z,96116.33
2018-11-22T03:58:51.410Z,96118.66
2018-11-22T04:01:40.487Z,96118.02
2018-11-22T04:04:22.520Z,96120.55
2018-11-22T04:07:11.585Z,96117.95
2018-11-22T04:10:00.680Z,96118.41
2018-11-22T04:12:42.713Z,96123.41
2018-11-22T04:15:32.043Z,96120.55
2018-11-22T04:18:21.133Z,96126.84
2018-11-22T04:21:10.202Z,96124.59
2018-11-22T04:23:52.364Z,96122.91
2018-11-22T04:26:41.938Z,96113.34
2018-11-22T04:29:27.682Z,96116.91
2018-11-22T04:32:16.817Z,96110.06
2018-11-22T04:34:58.269Z,96118.80
2018-11-22T04:37:47.327Z,96116.91
2018-11-22T04:40:30.344Z,96110.02
2018-11-22T04:43:19.421Z,96095.56
2018-11-22T04:46:02.697Z,96104.78
2018-11-22T04:48:51.821Z,96108.53
2018-11-22T04:51:38.059Z,96109.73
2018-11-22T04:54:27.161Z,96110.77
2018-11-22T04:57:10.743Z,96118.98
2018-11-22T04:59:59.953Z,96100.98
2018-11-22T05:02:42.982Z,96119.17
2018-11-22T05:05:32.189Z,96126.66
2018-11-22T05:08:21.397Z,96125.27
2018-11-22T05:14:00.118Z,96128.98
2018-11-22T05:16:49.613Z,96111.25
2018-11-22T05:19:35.957Z,96128.31
2018-11-22T05:22:25.362Z,96131.91
2018-11-22T05:25:12.023Z,96122.00
2018-11-22T05:27:53.840Z,96139.82
2018-11-22T05:30:42.891Z,96131.88
2018-11-22T05:33:24.531Z,96134.06
2018-11-22T05:36:13.598Z,96114.17
2018-11-22T05:38:55.418Z,96129.37
2018-11-22T05:41:44.799Z,96136.75
2018-11-22T05:44:26.627Z,96140.58
2018-11-22T05:47:15.753Z,96141.03
2018-11-22T05:49:58.065Z,96127.66
2018-11-22T05:52:47.695Z,96136.64
2018-11-22T05:55:31.657Z,96136.40
2018-11-22T05:58:20.743Z,96136.40
2018-11-22T06:01:03.153Z,96136.48
2018-11-22T06:03:52.221Z,96133.81
2018-11-22T06:06:36.279Z,96131.15
2018-11-22T06:09:27.877Z,96133.92
2018-11-22T06:12:10.579Z,96140.22
2018-11-22T06:14:59.673Z,96137.63
2018-11-22T06:17:43.671Z,96142.99
2018-11-22T06:20:52.083Z,96134.69
2018-11-22T06:23:36.285Z,96145.19
2018-11-22T06:26:26.219Z,96141.01
2018-11-22T06:29:08.023Z,96144.17
2018-11-22T06:31:57.169Z,96144.20
2018-11-22T06:34:38.797Z,96123.44
2018-11-22T06:37:27.878Z,96150.05
2018-11-22T06:40:10.725Z,96146.61
2018-11-22T06:43:00.453Z,96148.02
2018-11-22T06:45:42.594Z,96150.97
2018-11-22T06:48:31.618Z,96154.08
2018-11-22T06:51:13.383Z,96142.71
2018-11-22T06:54:02.432Z,96161.27
2018-11-22T06:56:44.485Z,96165.63
2018-11-22T06:59:33.608Z,96159.80
2018-11-22T07:02:15.431Z,96156.58
2018-11-22T07:05:05.283Z,96153.47
2018-11-22T07:07:47.457Z,96161.97
2018-11-22T07:10:36.511Z,96163.98
2018-11-22T07:13:18.596Z,96155.50
2018-11-22T07:16:07.665Z,96166.15
2018-11-22T07:18:49.953Z,96167.80
2018-11-22T07:21:39.017Z,96171.88
2018-11-22T07:27:38.352Z,96178.45
2018-11-22T07:30:20.619Z,96163.52
2018-11-22T07:33:10.767Z,96151.26
2018-11-22T07:35:59.896Z,96182.05
2018-11-22T07:38:48.986Z,96177.47
2018-11-22T07:41:38.872Z,96169.27
2018-11-22T07:44:22.418Z,96173.39
2018-11-22T07:47:12.115Z,96165.73
2018-11-22T07:56:00.079Z,96176.36
2018-11-22T07:58:41.913Z,96172.03
2018-11-22T08:01:31.150Z,96178.91
2018-11-22T08:04:20.305Z,96164.77
2018-11-22T08:07:09.555Z,96185.67
2018-11-22T08:09:58.586Z,96186.80
2018-11-22T08:12:48.470Z,96183.36
2018-11-22T08:15:38.973Z,96189.28
2018-11-22T08:18:08.729Z,96182.17
2018-11-22T08:21:04.551Z,96182.00
2018-11-22T08:23:40.207Z,96177.98
2018-11-22T08:26:29.318Z,96189.80
2018-11-22T08:29:11.323Z,96184.19
2018-11-22T08:32:00.367Z,96185.28
2018-11-22T08:34:42.726Z,96190.87
2018-11-22T08:37:31.788Z,96193.14
2018-11-22T08:40:39.407Z,96186.89
2018-11-22T08:43:28.442Z,96188.78
2018-11-22T08:46:10.233Z,96169.25
2018-11-22T08:48:59.324Z,96190.81
2018-11-22T08:51:41.136Z,96194.53
2018-11-22T08:54:30.206Z,96186.78
2018-11-22T08:57:11.802Z,96201.23
2018-11-22T08:59:41.513Z,96192.59
2018-11-22T09:02:30.532Z,96197.00
2018-11-22T09:05:13.660Z,96197.10
2018-11-22T09:08:02.765Z,96204.16
2018-11-22T09:10:51.877Z,96202.79
2018-11-22T09:13:40.914Z,96190.53
2018-11-22T09:16:23.143Z,96201.74
2018-11-22T09:19:12.197Z,96208.29
2018-11-22T09:24:53.464Z,96212.05
2018-11-22T09:27:43.160Z,96214.95
2018-11-22T09:30:33.708Z,96224.25
2018-11-22T09:33:17.158Z,96203.34
2018-11-22T09:38:53.309Z,96235.86
2018-11-22T09:41:40.039Z,96235.84
2018-11-22T09:44:22.470Z,96241.27
2018-11-22T09:47:11.520Z,96219.50
2018-11-22T09:50:00.632Z,96224.44
2018-11-22T09:52:50.529Z,96230.97
2018-11-22T09:55:39.642Z,96226.69
2018-11-22T09:58:28.737Z,96224.11
2018-11-22T10:01:17.766Z,96211.45
2018-11-22T10:04:06.968Z,96225.08
2018-11-22T10:06:56.013Z,96227.83
2018-11-22T10:09:38.248Z,96227.36
2018-11-22T10:12:27.279Z,96227.33
2018-11-22T10:15:17.926Z,96236.94
2018-11-22T10:18:07.000Z,96236.25
2018-11-22T10:20:49.288Z,96238.66
2018-11-22T10:23:38.306Z,96238.31
2018-11-22T10:26:20.050Z,96230.94
2018-11-22T10:29:09.154Z,96232.98
2018-11-22T10:31:51.413Z,96231.88
2018-11-22T10:34:21.124Z,96228.38
2018-11-22T10:37:10.199Z,96231.63
2018-11-22T10:39:51.837Z,96217.44
2018-11-22T10:42:42.025Z,96229.99
2018-11-22T10:45:32.756Z,96218.53
2018-11-22T10:48:21.944Z,96227.90
2018-11-22T10:51:11.042Z,96226.94
2018-11-22T10:54:00.072Z,96221.83
2018-11-22T10:56:49.126Z,96214.25
2018-11-22T10:59:30.836Z,96223.45
2018-11-22T11:02:38.768Z,96222.34
2018-11-22T11:05:39.618Z,96218.05
2018-11-22T11:08:29.752Z,96218.66
2018-11-22T11:11:11.718Z,96212.16
2018-11-22T11:14:19.695Z,96215.11
2018-11-22T11:17:01.567Z,96211.45
2018-11-22T11:19:50.621Z,96207.41
2018-11-22T11:22:33.354Z,96213.24
2018-11-22T11:25:22.404Z,96214.16
2018-11-22T11:28:04.074Z,96213.70
2018-11-22T11:30:53.149Z,96219.08
2018-11-22T11:33:35.381Z,96209.90
2018-11-22T11:36:24.371Z,96215.50
2018-11-22T11:39:07.281Z,96208.98
2018-11-22T11:41:56.328Z,96209.07
2018-11-22T11:44:38.847Z,96207.73
2018-11-22T11:47:27.917Z,96201.56
2018-11-22T11:53:10.233Z,96203.02
2018-11-22T11:55:52.533Z,96196.08
2018-11-22T11:58:41.737Z,96203.10
2018-11-22T12:01:30.863Z,96199.59
2018-11-22T12:04:19.989Z,96178.85
2018-11-22T12:07:09.111Z,96195.81
2018-11-22T12:09:58.216Z,96189.00
2018-11-22T12:12:47.741Z,96193.06
2018-11-22T12:15:36.855Z,96197.87
2018-11-22T12:18:26.016Z,96199.86
2018-11-22T12:21:15.137Z,96190.61
2018-11-22T12:24:04.290Z,96189.06
2018-11-22T12:26:53.423Z,96192.73
2018-11-22T12:29:23.224Z,96194.66
2018-11-22T12:32:13.101Z,96193.03
2018-11-22T12:35:06.625Z,96195.04
2018-11-22T12:38:15.694Z,96192.52
2018-11-22T12:41:04.784Z,96193.86
2018-11-22T12:43:53.989Z,96187.43
2018-11-22T12:46:43.161Z,96197.22
2018-11-22T12:49:32.336Z,96197.20
2018-11-22T12:52:21.480Z,96189.46
2018-11-22T12:55:11.371Z,96185.98
2018-11-22T12:58:00.608Z,96185.33
2018-11-22T13:00:49.751Z,96186.91
2018-11-22T13:03:38.806Z,96186.91
2018-11-22T13:06:28.030Z,96180.77
2018-11-22T13:09:17.830Z,96184.94
2018-11-22T13:12:06.904Z,96190.75
2018-11-22T13:14:49.496Z,96191.24
2018-11-22T13:17:38.810Z,96189.95
2018-11-22T13:20:27.961Z,96173.56
2018-11-22T13:23:17.074Z,96178.38
2018-11-22T13:26:06.193Z,96175.72
2018-11-22T13:28:55.487Z,96153.00
2018-11-22T13:31:44.895Z,96177.16
2018-11-22T13:34:34.403Z,96177.48
2018-11-22T13:37:23.422Z,96174.70
2018-11-22T13:40:13.265Z,96173.83
2018-11-22T13:43:02.276Z,96174.21
2018-11-22T13:45:44.051Z,96178.59
2018-11-22T13:48:33.193Z,96170.72
2018-11-22T13:51:15.045Z,96169.19
2018-11-22T13:54:04.132Z,96171.04
2018-11-22T13:56:46.131Z,96170.22
2018-11-22T13:59:35.230Z,96165.74
2018-11-22T14:02:17.361Z,96163.72
2018-11-22T14:05:11.513Z,96162.84
2018-11-22T14:07:48.713Z,96160.98
2018-11-22T14:10:37.793Z,96165.55
2018-11-22T14:13:19.897Z,96155.84
2018-11-22T14:16:09.147Z,96156.73
2018-11-22T14:18:58.287Z,96155.05
2018-11-22T14:21:47.458Z,96162.34
2018-11-22T14:24:36.595Z,96151.21
2018-11-22T14:27:25.725Z,96158.42
2018-11-22T14:30:33.777Z,96156.95
2018-11-22T14:33:22.797Z,96156.22
2018-11-22T14:36:11.815Z,96148.05
2018-11-22T14:39:00.855Z,96151.06
2018-11-22T14:41:43.465Z,96138.20
2018-11-22T14:44:32.513Z,96151.89
2018-11-22T14:47:14.581Z,96155.87
2018-11-22T14:50:04.607Z,96156.27
2018-11-22T14:52:47.966Z,96153.73
2018-11-22T14:55:37.104Z,96164.02
2018-11-22T14:58:19.106Z,96148.98
2018-11-22T15:01:08.130Z,96169.31
2018-11-22T15:03:49.991Z,96162.23
2018-11-22T15:06:39.001Z,96168.36
2018-11-22T15:09:21.359Z,96159.33
2018-11-22T15:12:10.424Z,96171.27
2018-11-22T15:14:52.116Z,96159.93
2018-11-22T15:17:41.523Z,96160.16
2018-11-22T15:20:24.297Z,96130.53
2018-11-22T15:23:13.317Z,96151.48
2018-11-22T15:25:55.227Z,96161.06
2018-11-22T15:28:44.277Z,96163.12
2018-11-22T15:31:33.328Z,96169.05
2018-11-22T15:34:15.473Z,96174.87
2018-11-22T15:37:04.576Z,96172.06
2018-11-22T15:39:53.718Z,96173.38
2018-11-22T15:42:43.380Z,96177.20
2018-11-22T15:45:34.943Z,96181.84
2018-11-22T15:48:22.082Z,96184.95
2018-11-22T15:51:11.165Z,96189.80
2018-11-22T15:54:00.262Z,96179.28
2018-11-22T15:56:49.438Z,96195.75
2018-11-22T15:59:38.708Z,96195.76
2018-11-22T16:02:28.281Z,96197.90
2018-11-22T16:05:17.928Z,96193.50
2018-11-22T16:08:07.124Z,96212.95
2018-11-22T16:10:56.263Z,96207.21
2018-11-22T16:13:45.390Z,96207.95
2018-11-22T16:16:34.551Z,96207.58
2018-11-22T16:19:23.769Z,96211.07
2018-11-22T16:22:12.876Z,96208.49
2018-11-22T16:25:01.899Z,96205.55
2018-11-22T16:27:51.006Z,96211.22
2018-11-22T16:30:40.768Z,96213.45
2018-11-22T16:33:22.530Z,96221.09
2018-11-22T16:36:11.577Z,96217.69
2018-11-22T16:38:53.455Z,96225.13
2018-11-22T16:41:42.522Z,96225.70
2018-11-22T16:44:24.417Z,96230.53
2018-11-22T16:47:13.503Z,96237.81
2018-11-22T16:49:55.906Z,96221.79
2018-11-22T16:52:45.012Z,96236.58
2018-11-22T16:58:37.096Z,96236.14
2018-11-22T17:01:19.078Z,96241.64
2018-11-22T17:04:08.189Z,96243.10
2018-11-22T17:06:57.326Z,96243.20
2018-11-22T17:09:46.425Z,96246.36
2018-11-22T17:12:35.615Z,96240.95
2018-11-22T17:15:26.293Z,96238.92
2018-11-22T17:18:15.431Z,96246.34
2018-11-22T17:21:04.542Z,96236.78
2018-11-22T17:23:53.593Z,96236.11
2018-11-22T17:26:35.793Z,96253.41
2018-11-22T17:29:24.945Z,96268.45
2018-11-22T17:32:14.027Z,96264.41
2018-11-22T17:35:03.107Z,96270.70
2018-11-22T17:37:52.757Z,96259.91
2018-11-22T17:40:36.642Z,96264.95
2018-11-22T17:43:25.688Z,96262.61
2018-11-22T17:46:07.204Z,96254.98
2018-11-22T17:51:58.405Z,96255.66
2018-11-22T17:54:47.607Z,96260.70
2018-11-22T17:57:36.671Z,96265.44
2018-11-22T18:00:38.317Z,96271.16
2018-11-22T18:03:27.425Z,96270.36
2018-11-22T18:06:16.627Z,96270.94
2018-11-22T18:09:26.261Z,96260.72
2018-11-22T18:12:15.447Z,96277.22
2018-11-22T18:15:04.642Z,96262.62
2018-11-22T18:17:54.427Z,96266.20
2018-11-22T18:20:43.559Z,96271.25
2018-11-22T18:23:32.925Z,96274.75
2018-11-22T18:28:53.717Z,96274.30
2018-11-22T18:34:31.936Z,96252.88
2018-11-22T18:37:14.445Z,96274.17
2018-11-22T18:40:03.596Z,96273.73
2018-11-22T18:42:53.677Z,96265.98
2018-11-22T18:45:37.899Z,96275.97
2018-11-22T18:48:21.142Z,96268.42
2018-11-22T18:51:10.258Z,96268.44
2018-11-22T18:53:59.398Z,96263.73
2018-11-22T18:56:48.579Z,96267.12
2018-11-22T18:59:38.118Z,96265.64
2018-11-22T19:02:27.974Z,96275.65
2018-11-22T19:05:17.722Z,96259.26
2018-11-22T19:08:06.947Z,96281.60
2018-11-22T19:10:57.364Z,96283.70
2018-11-22T19:13:47.116Z,96280.34
2018-11-22T19:16:39.256Z,96256.67
2018-11-22T19:19:30.069Z,96277.54
2018-11-22T19:22:20.118Z,96281.80
2018-11-22T19:25:10.008Z,96281.25
2018-11-22T19:28:00.283Z,96284.38
2018-11-22T19:30:49.946Z,96276.61
2018-11-22T19:33:40.040Z,96271.65
2018-11-22T19:36:29.202Z,96267.30
2018-11-22T19:39:18.407Z,96275.52
2018-11-22T19:44:50.833Z,96284.61
2018-11-22T19:47:40.438Z,96288.22
2018-11-22T19:50:23.889Z,96296.53
2018-11-22T19:56:06.008Z,96298.20
2018-11-22T19:58:55.368Z,96304.16
2018-11-22T20:01:44.432Z,96289.09
2018-11-22T20:04:33.521Z,96307.20
2018-11-22T20:07:22.590Z,96293.84
2018-11-22T20:10:04.638Z,96311.95
2018-11-22T20:12:53.710Z,96315.28
2018-11-22T20:15:36.732Z,96317.27
2018-11-22T20:18:25.799Z,96311.59
2018-11-22T20:21:07.960Z,96322.95
2018-11-22T20:23:57.137Z,96324.09
2018-11-22T20:26:39.349Z,96330.34
2018-11-22T20:29:28.767Z,96323.65
2018-11-22T20:32:10.710Z,96331.49
2018-11-22T20:40:31.634Z,96334.64
2018-11-22T20:43:14.129Z,96331.17
2018-11-22T20:46:22.167Z,96339.55
2018-11-22T20:49:04.285Z,96336.29
2018-11-22T20:51:53.359Z,96332.05
2018-11-22T20:54:23.122Z,96334.05
2018-11-22T20:57:12.235Z,96331.02
2018-11-22T20:59:54.444Z,96341.36
2018-11-22T21:02:43.535Z,96334.59
2018-11-22T21:05:32.769Z,96332.25
2018-11-22T21:08:14.641Z,96336.11
2018-11-22T21:11:03.773Z,96340.45
2018-11-22T21:13:52.953Z,96322.22
2018-11-22T21:16:42.134Z,96336.05
2018-11-22T21:19:31.289Z,96325.08
2018-11-22T21:22:20.603Z,96341.53
2018-11-22T21:25:12.015Z,96330.32
2018-11-22T21:28:01.225Z,96332.88
2018-11-22T21:30:50.358Z,96334.80
2018-11-22T21:33:39.910Z,96315.02
2018-11-22T21:36:29.683Z,96331.80
2018-11-22T21:39:18.831Z,96330.46
2018-11-22T21:42:07.973Z,96322.02
2018-11-22T21:44:50.094Z,96317.42
2018-11-22T21:47:39.289Z,96326.36
2018-11-22T21:50:29.003Z,96328.14
2018-11-22T21:53:18.328Z,96325.39
2018-11-22T21:56:07.527Z,96341.52
2018-11-22T21:58:56.769Z,96342.72
2018-11-22T22:01:45.929Z,96327.00
2018-11-22T22:04:35.107Z,96340.73
2018-11-22T22:07:24.256Z,96323.81
2018-11-22T22:10:13.482Z,96338.73
2018-11-22T22:13:02.664Z,96336.45
2018-11-22T22:15:51.865Z,96343.56
2018-11-22T22:21:25.334Z,96335.31
2018-11-22T22:24:14.448Z,96340.69
2018-11-22T22:26:56.627Z,96339.55
2018-11-22T22:29:45.694Z,96348.41
2018-11-22T22:32:27.612Z,96332.16
2018-11-22T22:35:16.726Z,96327.09
2018-11-22T22:37:59.671Z,96355.92
2018-11-22T22:40:43.167Z,96333.56
2018-11-22T22:48:54.084Z,96339.95
2018-11-22T22:51:43.253Z,96344.35
2018-11-22T22:54:32.424Z,96340.14
2018-11-22T22:57:21.692Z,96340.23
2018-11-22T23:03:27.997Z,96345.11
2018-11-22T23:06:17.266Z,96326.77
2018-11-22T23:12:17.020Z,96330.84
2018-11-22T23:14:59.095Z,96332.81
2018-11-22T23:17:49.721Z,96320.37
2018-11-22T23:23:31.556Z,96324.33
2018-11-22T23:29:26.660Z,96333.22
2018-11-22T23:32:10.854Z,96327.52
2018-11-22T23:35:00.309Z,96310.46
2018-11-22T23:40:34.572Z,96326.48
2018-11-22T23:43:24.130Z,96320.05
2018-11-22T23:46:10.654Z,96326.33
2018-11-22T23:51:56.506Z,96320.63
2018-11-22T23:54:45.669Z,96320.05
2018-11-22T23:57:35.080Z,96296.22
